Time;durP1;ratioP1;P1;durP2;ratioP2;P2;SDS_P1;SDS_P2;PMS_P1;PMS_P2;Temp;Humidity;BMP_temperature;BMP_pressure;BME280_temperature;BME280_humidity;BME280_pressure;Samples;Min_cycle;Max_cycle;Signal;HPM_P1;HPM_P2
2023/07/12 00:00:28;;;;;;;6.30;4.50;;;;;;;23.96;58.01;100283.25;680033;28;1546;-77
2023/07/12 00:00:49;;;;;;;7.18;4.50;;;;;;;24.00;57.89;100284.03;687503;28;933;-77
2023/07/12 00:01:11;;;;;;;7.75;4.80;;;;;;;23.94;57.91;100279.78;690466;28;1039;-79
2023/07/12 00:01:31;;;;;;;8.30;4.90;;;;;;;23.92;58.22;100287.84;690186;28;1605;-79
2023/07/12 00:01:52;;;;;;;9.00;5.30;;;;;;;24.02;57.87;100275.06;685045;28;1180;-79
2023/07/12 00:02:13;;;;;;;9.73;5.40;;;;;;;24.01;57.94;100283.97;687771;28;1016;-78
2023/07/12 00:02:33;;;;;;;9.93;5.60;;;;;;;24.06;57.91;100292.69;687625;28;1110;-78
2023/07/12 00:02:58;;;;;;;9.10;5.50;;;;;;;24.03;57.97;100274.13;685077;28;1166;-78
2023/07/12 00:03:20;;;;;;;9.63;5.50;;;;;;;24.01;57.76;100281.31;684771;28;1029;-80
2023/07/12 00:03:40;;;;;;;9.40;5.50;;;;;;;24.03;58.01;100243.97;688585;28;1299;-78
2023/07/12 00:04:01;;;;;;;9.67;5.40;;;;;;;23.98;57.90;100256.56;686803;28;995;-78
2023/07/12 00:04:21;;;;;;;8.38;5.00;;;;;;;23.92;58.28;100236.34;684797;28;1014;-79
2023/07/12 00:04:42;;;;;;;8.53;4.60;;;;;;;23.95;58.20;100221.13;684279;28;1366;-79
2023/07/12 00:05:03;;;;;;;8.90;4.30;;;;;;;23.93;57.84;100211.44;682370;28;1156;-78
2023/07/12 00:05:28;;;;;;;9.40;4.22;;;;;;;23.93;57.58;100177.66;679444;29;1005;-78
2023/07/12 00:05:51;;;;;;;9.30;4.38;;;;;;;23.93;57.39;100168.81;681921;28;2081;-79
2023/07/12 00:06:23;;;;;;;7.75;4.28;;;;;;;23.87;57.66;100151.28;682307;28;1448;-78
2023/07/12 00:06:43;;;;;;;7.90;4.20;;;;;;;23.88;57.56;100141.47;687812;28;811;-80
2023/07/12 00:07:04;;;;;;;7.65;3.90;;;;;;;23.86;57.23;100141.53;687383;28;1177;-77
2023/07/12 00:07:25;;;;;;;8.85;4.10;;;;;;;23.80;57.08;100131.13;690181;28;1126;-78
2023/07/12 00:07:46;;;;;;;9.85;4.30;;;;;;;23.77;56.85;100126.75;685117;28;1225;-78
2023/07/12 00:08:16;;;;;;;9.90;4.50;;;;;;;23.71;57.19;100131.44;682700;28;1212;-79
2023/07/12 00:08:37;;;;;;;11.45;4.40;;;;;;;23.62;57.20;100143.28;682496;28;2001;-78
2023/07/12 00:08:58;;;;;;;12.40;4.40;;;;;;;23.56;57.31;100155.88;680212;28;1292;-79
2023/07/12 00:09:18;;;;;;;11.45;4.28;;;;;;;23.52;57.38;100148.94;684536;28;1681;-78
2023/07/12 00:09:39;;;;;;;6.93;4.23;;;;;;;23.50;57.48;100149.94;685115;28;1393;-78
2023/07/12 00:10:00;;;;;;;6.40;4.10;;;;;;;23.47;57.66;100139.41;682359;28;1304;-79
2023/07/12 00:10:23;;;;;;;6.32;3.92;;;;;;;23.45;57.82;100144.78;681913;28;1651;-78
2023/07/12 00:10:44;;;;;;;5.18;3.70;;;;;;;23.41;57.82;100128.03;679976;29;819;-79
2023/07/12 00:11:05;;;;;;;5.15;3.60;;;;;;;23.41;57.60;100132.47;687090;28;1469;-79
2023/07/12 00:11:25;;;;;;;5.60;3.50;;;;;;;23.40;57.88;100133.41;684752;28;1154;-77
2023/07/12 00:11:46;;;;;;;6.28;3.30;;;;;;;23.44;57.76;100129.72;685279;28;935;-79
2023/07/12 00:12:07;;;;;;;6.20;3.05;;;;;;;23.38;57.92;100133.47;685010;28;1049;-79
2023/07/12 00:12:28;;;;;;;6.40;3.10;;;;;;;23.42;58.09;100142.19;684761;28;1119;-79
2023/07/12 00:12:49;;;;;;;7.45;3.22;;;;;;;23.37;58.21;100144.19;690539;28;1291;-78
2023/07/12 00:13:10;;;;;;;8.25;3.30;;;;;;;23.26;58.22;100129.47;687577;28;1336;-78
2023/07/12 00:13:47;;;;;;;8.63;3.15;;;;;;;23.25;58.55;100133.03;684860;28;1334;-79
2023/07/12 00:14:08;;;;;;;5.85;2.92;;;;;;;23.18;58.59;100134.16;686749;28;1289;-79
2023/07/12 00:14:28;;;;;;;5.27;2.90;;;;;;;23.17;58.61;100132.44;687451;28;1183;-78
2023/07/12 00:14:49;;;;;;;5.05;2.90;;;;;;;23.10;58.90;100126.47;682921;28;1254;-78
2023/07/12 00:15:11;;;;;;;5.60;2.80;;;;;;;23.10;58.89;100138.88;679588;29;1237;-79
2023/07/12 00:15:34;;;;;;;5.55;2.40;;;;;;;22.99;59.02;100134.81;679247;28;1153;-80
2023/07/12 00:15:55;;;;;;;6.60;2.50;;;;;;;22.99;59.39;100149.91;679600;29;1140;-79
2023/07/12 00:16:22;;;;;;;5.63;2.40;;;;;;;22.90;59.37;100131.56;682188;28;1188;-78
2023/07/12 00:16:43;;;;;;;4.80;2.58;;;;;;;22.87;59.59;100135.22;682654;29;891;-79
2023/07/12 00:17:04;;;;;;;5.20;2.60;;;;;;;22.77;59.63;100136.41;685025;28;1152;-79
2023/07/12 00:17:24;;;;;;;5.67;2.77;;;;;;;22.76;60.03;100129.38;684691;28;1115;-79
2023/07/12 00:17:45;;;;;;;4.97;2.65;;;;;;;22.67;59.88;100123.44;685304;28;787;-78
2023/07/12 00:18:13;;;;;;;4.85;2.40;;;;;;;22.62;60.36;100124.50;685014;28;978;-78
2023/07/12 00:18:34;;;;;;;4.63;2.15;;;;;;;22.60;60.34;100136.06;679483;29;1314;-79
2023/07/12 00:18:56;;;;;;;5.13;2.20;;;;;;;22.52;60.52;100129.25;677120;29;1121;-79
2023/07/12 00:19:16;;;;;;;7.40;2.30;;;;;;;22.53;60.51;100142.50;679586;29;1111;-79
2023/07/12 00:19:37;;;;;;;6.37;2.23;;;;;;;22.45;60.55;100134.75;682560;29;753;-78
2023/07/12 00:19:58;;;;;;;6.13;2.38;;;;;;;22.41;60.73;100130.47;682486;29;1029;-78
2023/07/12 00:20:35;;;;;;;4.93;2.37;;;;;;;22.44;60.94;100151.63;687355;28;1120;-77
2023/07/12 00:20:55;;;;;;;6.13;2.42;;;;;;;22.30;61.08;100141.44;690388;28;1064;-78
2023/07/12 00:21:24;;;;;;;5.63;2.38;;;;;;;22.28;61.32;100156.56;687380;28;1103;-78
2023/07/12 00:21:45;;;;;;;4.03;2.20;;;;;;;22.26;61.55;100157.53;685025;28;1228;-79
2023/07/12 00:22:10;;;;;;;4.18;2.20;;;;;;;22.23;61.44;100160.22;684495;28;999;-78
2023/07/12 00:22:30;;;;;;;4.70;2.30;;;;;;;22.17;61.61;100153.31;682246;28;1206;-78
2023/07/12 00:22:51;;;;;;;4.70;2.40;;;;;;;22.13;61.96;100155.19;677209;29;1054;-79
2023/07/12 00:23:14;;;;;;;3.83;2.30;;;;;;;22.11;61.94;100162.34;677168;29;1457;-79
2023/07/12 00:23:34;;;;;;;3.85;2.35;;;;;;;22.09;62.09;100168.63;679800;29;1053;-79
2023/07/12 00:23:57;;;;;;;5.30;2.67;;;;;;;22.01;62.09;100151.13;679693;29;1171;-79
2023/07/12 00:24:18;;;;;;;5.70;2.70;;;;;;;22.04;62.34;100160.78;681860;29;1283;-77
2023/07/12 00:24:39;;;;;;;4.78;2.65;;;;;;;21.94;62.71;100164.66;682533;29;919;-79
2023/07/12 00:24:59;;;;;;;4.23;2.57;;;;;;;21.91;63.25;100163.84;682407;29;1291;-80
2023/07/12 00:25:22;;;;;;;3.95;2.55;;;;;;;21.82;63.02;100140.16;677383;29;1415;-78
2023/07/12 00:25:44;;;;;;;4.22;2.72;;;;;;;21.82;63.45;100156.09;679294;29;1202;-77
2023/07/12 00:26:22;;;;;;;4.70;2.80;;;;;;;21.86;63.54;100168.41;679765;29;1029;-78
2023/07/12 00:26:42;;;;;;;7.20;2.70;;;;;;;21.80;63.80;100147.31;679840;28;926;-78
2023/07/12 00:27:03;;;;;;;6.67;2.60;;;;;;;21.76;63.91;100154.50;682107;28;1034;-78
2023/07/12 00:27:24;;;;;;;4.10;2.60;;;;;;;21.75;63.86;100154.53;682128;28;1060;-78
2023/07/12 00:27:45;;;;;;;5.00;2.63;;;;;;;21.69;64.27;100149.44;682530;29;1109;-78
2023/07/12 00:28:26;;;;;;;7.13;2.63;;;;;;;21.71;64.34;100163.53;679477;29;1220;-78
2023/07/12 00:28:47;;;;;;;6.60;2.75;;;;;;;21.74;64.27;100158.13;679374;29;953;-78
2023/07/12 00:29:08;;;;;;;4.80;2.92;;;;;;;21.75;64.35;100168.69;679710;29;991;-79
2023/07/12 00:29:31;;;;;;;5.72;2.90;;;;;;;21.73;64.52;100167.00;679552;29;1010;-78
2023/07/12 00:29:51;;;;;;;6.17;3.10;;;;;;;21.71;64.47;100167.03;687600;28;1173;-78
2023/07/12 00:30:21;;;;;;;6.70;3.00;;;;;;;21.63;64.75;100161.94;684952;28;1048;-78
2023/07/12 00:30:42;;;;;;;6.43;3.10;;;;;;;21.62;64.88;100165.53;682830;28;1371;-78
2023/07/12 00:31:02;;;;;;;5.97;2.90;;;;;;;21.63;65.11;100169.91;682291;28;1322;-78
2023/07/12 00:31:23;;;;;;;7.37;3.10;;;;;;;21.61;65.15;100179.72;682135;29;967;-79
2023/07/12 00:31:44;;;;;;;6.63;2.90;;;;;;;21.64;65.32;100179.63;679846;29;756;-78
2023/07/12 00:32:05;;;;;;;6.03;2.90;;;;;;;21.61;65.34;100174.41;679548;29;1184;-79
2023/07/12 00:32:25;;;;;;;5.10;2.90;;;;;;;21.57;65.66;100175.38;679483;29;1210;-78
2023/07/12 00:32:54;;;;;;;5.40;3.10;;;;;;;21.59;65.59;100172.69;679949;29;808;-79
2023/07/12 00:33:15;;;;;;;5.70;3.10;;;;;;;21.59;65.77;100170.91;687440;28;1052;-78
2023/07/12 00:33:35;;;;;;;6.80;3.10;;;;;;;21.60;65.50;100179.75;685290;28;1405;-79
2023/07/12 00:33:59;;;;;;;6.60;3.22;;;;;;;21.55;65.92;100171.91;685192;28;1040;-79
2023/07/12 00:34:20;;;;;;;6.35;3.30;;;;;;;21.55;65.90;100177.22;682133;28;1269;-79
2023/07/12 00:34:41;;;;;;;5.47;3.35;;;;;;;21.52;65.90;100179.09;679967;28;1165;-79
2023/07/12 00:35:01;;;;;;;5.70;3.30;;;;;;;21.55;65.67;100185.19;679864;29;954;-79
2023/07/12 00:35:25;;;;;;;6.20;3.20;;;;;;;21.50;65.98;100187.97;679613;29;982;-78
2023/07/12 00:35:48;;;;;;;7.40;3.20;;;;;;;21.54;66.11;100196.72;682006;29;820;-78
2023/07/12 00:36:14;;;;;;;7.10;3.30;;;;;;;21.59;66.04;100202.75;682217;28;1323;-78
2023/07/12 00:36:36;;;;;;;7.22;3.28;;;;;;;21.55;65.88;100201.13;677850;29;1348;-79
2023/07/12 00:36:57;;;;;;;6.90;3.47;;;;;;;21.51;66.15;100194.13;677145;29;1030;-79
2023/07/12 00:37:18;;;;;;;7.53;3.20;;;;;;;21.54;65.95;100201.16;681557;29;1105;-79
2023/07/12 00:37:38;;;;;;;8.93;3.60;;;;;;;21.53;66.14;100208.25;682417;29;821;-83
2023/07/12 00:38:01;;;;;;;8.63;3.50;;;;;;;21.56;65.95;100199.31;679681;29;1245;-79
2023/07/12 00:38:23;;;;;;;7.38;3.60;;;;;;;21.44;66.24;100187.22;676701;29;1089;-78
2023/07/12 00:38:44;;;;;;;7.50;3.30;;;;;;;21.57;66.24;100209.91;682321;28;1163;-79
2023/07/12 00:39:05;;;;;;;7.88;3.30;;;;;;;21.54;66.44;100207.34;682077;28;1185;-79
2023/07/12 00:39:26;;;;;;;6.97;3.42;;;;;;;21.54;66.40;100207.34;682019;29;1322;-78
2023/07/12 00:39:47;;;;;;;6.97;3.30;;;;;;;21.49;66.39;100196.84;680048;28;1181;-78
2023/07/12 00:40:16;;;;;;;7.20;3.25;;;;;;;21.57;66.50;100209.91;685057;28;998;-79
2023/07/12 00:40:55;;;;;;;6.30;3.28;;;;;;;21.54;66.56;100214.41;685009;28;2073;-79
2023/07/12 00:41:40;;;;;;;6.95;3.40;;;;;;;21.56;66.68;100215.25;686889;28;1087;-80
2023/07/12 00:42:24;;;;;;;5.30;3.35;;;;;;;21.43;66.64;100190.78;684989;28;1226;-79
2023/07/12 00:42:46;;;;;;;8.70;3.60;;;;;;;21.48;66.61;100213.66;682475;29;868;-80
2023/07/12 00:43:33;;;;;;;8.48;3.42;;;;;;;21.41;66.84;100198.81;679716;28;1235;-77
2023/07/12 00:44:07;;;;;;;5.22;3.47;;;;;;;21.42;66.99;100207.63;681332;28;1328;-79
2023/07/12 00:44:51;;;;;;;6.57;3.80;;;;;;;21.35;67.11;100198.97;684856;28;1062;-80
2023/07/12 00:45:13;;;;;;;6.22;3.60;;;;;;;21.36;66.97;100185.66;681884;28;1118;-77
2023/07/12 00:45:33;;;;;;;7.75;3.50;;;;;;;21.32;67.20;100186.63;682494;28;1040;-79
2023/07/12 00:45:58;;;;;;;7.20;3.37;;;;;;;21.39;67.20;100194.44;684683;28;1970;-79
2023/07/12 00:46:29;;;;;;;7.60;3.60;;;;;;;21.27;67.38;100185.88;684691;28;985;-78
2023/07/12 00:46:53;;;;;;;7.43;3.70;;;;;;;21.30;67.46;100201.75;682589;28;902;-78
2023/07/12 00:47:14;;;;;;;7.80;3.75;;;;;;;21.19;67.41;100174.59;679388;29;1186;-79
2023/07/12 00:47:36;;;;;;;6.30;3.60;;;;;;;21.25;67.50;100187.72;677371;29;1131;-79
2023/07/12 00:47:57;;;;;;;5.75;3.45;;;;;;;21.23;67.57;100192.19;679615;29;1214;-79
2023/07/12 00:48:17;;;;;;;7.07;3.50;;;;;;;21.18;67.70;100180.81;687156;28;1051;-78
2023/07/12 00:48:38;;;;;;;8.15;3.72;;;;;;;21.17;67.79;100174.66;679730;28;1269;-79
2023/07/12 00:48:59;;;;;;;8.17;3.70;;;;;;;21.19;67.79;100187.84;682251;28;1256;-78
2023/07/12 00:49:20;;;;;;;6.57;3.78;;;;;;;21.20;67.89;100184.28;683572;28;1482;-79
2023/07/12 00:49:45;;;;;;;6.97;4.10;;;;;;;21.16;67.82;100182.66;682500;29;839;-78
2023/07/12 00:50:18;;;;;;;7.00;4.15;;;;;;;21.20;67.64;100190.47;680069;28;1452;-79
2023/07/12 00:50:41;;;;;;;6.50;3.92;;;;;;;21.21;67.78;100184.25;685345;28;1401;-79
2023/07/12 00:51:21;;;;;;;6.20;3.95;;;;;;;21.23;67.83;100189.53;685001;28;1104;-80
2023/07/12 00:51:44;;;;;;;6.63;3.30;;;;;;;21.19;67.82;100183.44;685199;28;918;-79
2023/07/12 00:52:10;;;;;;;6.82;3.30;;;;;;;21.18;67.83;100191.44;679701;29;999;-78
2023/07/12 00:52:32;;;;;;;5.80;3.30;;;;;;;21.16;67.71;100183.53;684815;28;1213;-78
2023/07/12 00:52:53;;;;;;;6.07;3.10;;;;;;;21.18;67.81;100186.13;682843;28;1064;-78
2023/07/12 00:53:19;;;;;;;6.30;3.28;;;;;;;21.21;67.86;100201.97;682306;29;1097;-79
2023/07/12 00:53:40;;;;;;;8.10;3.50;;;;;;;21.15;67.76;100195.03;677186;29;1452;-79
2023/07/12 00:54:01;;;;;;;7.97;3.40;;;;;;;21.15;68.00;100194.16;684956;28;1176;-78
2023/07/12 00:54:25;;;;;;;8.73;3.55;;;;;;;21.12;68.00;100194.22;687431;28;1116;-78
2023/07/12 00:55:03;;;;;;;6.10;3.50;;;;;;;21.21;67.91;100199.31;679756;29;823;-78
2023/07/12 00:56:02;;;;;;;6.20;3.58;;;;;;;21.23;67.79;100200.16;679471;29;1061;-78
2023/07/12 00:56:24;;;;;;;6.20;3.58;;;;;;;21.22;67.75;100204.56;687114;28;1982;-78
2023/07/12 00:56:45;;;;;;;7.13;3.55;;;;;;;21.23;67.76;100206.31;690300;28;1448;-79
2023/07/12 00:57:06;;;;;;;6.53;3.33;;;;;;;21.14;67.73;100190.63;684736;28;1135;-79
2023/07/12 00:57:31;;;;;;;5.47;3.17;;;;;;;21.13;67.84;100182.72;676787;28;1070;-79
2023/07/12 00:57:52;;;;;;;6.50;3.60;;;;;;;21.18;67.89;100194.06;682297;28;1384;-78
2023/07/12 00:58:13;;;;;;;7.05;3.72;;;;;;;21.10;67.84;100186.34;687466;28;1204;-79
2023/07/12 00:58:45;;;;;;;6.90;3.78;;;;;;;21.08;67.87;100181.06;690289;28;961;-78
2023/07/12 00:59:14;;;;;;;6.35;3.42;;;;;;;21.20;67.82;100203.75;690282;28;1081;-79
2023/07/12 00:59:35;;;;;;;5.80;3.58;;;;;;;21.14;67.75;100195.09;684901;28;1203;-79
2023/07/12 01:00:05;;;;;;;5.97;3.50;;;;;;;21.09;67.84;100190.75;684899;28;1182;-79
2023/07/12 01:00:25;;;;;;;5.75;3.22;;;;;;;21.09;67.96;100188.09;687322;28;1136;-79
2023/07/12 01:00:46;;;;;;;6.05;3.10;;;;;;;21.14;67.73;100203.91;687919;28;1185;-79
2023/07/12 01:01:10;;;;;;;6.17;3.33;;;;;;;21.12;67.93;100191.56;682345;29;1049;-79
2023/07/12 01:01:34;;;;;;;6.03;3.45;;;;;;;21.14;67.87;100203.91;682276;29;1013;-78
2023/07/12 01:01:59;;;;;;;6.20;3.60;;;;;;;21.21;67.91;100212.59;685004;28;1113;-78
2023/07/12 01:02:23;;;;;;;6.07;3.50;;;;;;;21.18;68.02;100204.69;684730;28;1137;-79
2023/07/12 01:02:46;;;;;;;5.70;3.50;;;;;;;21.14;68.14;100200.41;687845;28;787;-79
2023/07/12 01:03:12;;;;;;;5.82;3.45;;;;;;;21.03;68.02;100193.56;680160;28;1531;-79
2023/07/12 01:03:37;;;;;;;6.53;3.40;;;;;;;21.14;68.18;100208.34;676818;29;1267;-78
2023/07/12 01:03:59;;;;;;;5.72;3.15;;;;;;;21.06;68.17;100198.81;677211;29;1026;-78
2023/07/12 01:04:24;;;;;;;4.97;3.00;;;;;;;21.17;68.22;100210.91;684732;28;1109;-79
2023/07/12 01:04:48;;;;;;;7.20;3.10;;;;;;;21.08;68.11;100201.41;687611;28;1421;-79
2023/07/12 01:05:09;;;;;;;7.65;3.33;;;;;;;21.16;68.10;100204.75;687386;28;1141;-79
2023/07/12 01:05:32;;;;;;;6.75;3.38;;;;;;;21.20;68.05;100205.50;684609;28;1279;-78
2023/07/12 01:05:53;;;;;;;5.28;3.03;;;;;;;21.16;68.11;100201.22;679415;29;1933;-80
2023/07/12 01:06:17;;;;;;;5.22;3.10;;;;;;;21.14;68.06;100195.09;684882;28;1115;-79
2023/07/12 01:06:38;;;;;;;5.38;3.00;;;;;;;21.20;67.92;100200.22;684928;28;1313;-79
2023/07/12 01:07:00;;;;;;;6.80;3.20;;;;;;;21.28;67.84;100211.53;687642;28;997;-79
2023/07/12 01:07:22;;;;;;;7.18;3.47;;;;;;;21.33;67.65;100208.75;681745;29;1248;-79
2023/07/12 01:07:43;;;;;;;7.40;3.55;;;;;;;21.29;68.12;100194.69;682454;28;803;-79
2023/07/12 01:08:04;;;;;;;7.18;3.40;;;;;;;21.30;67.72;100203.50;683455;28;1164;-79
2023/07/12 01:08:27;;;;;;;8.20;3.50;;;;;;;21.29;67.49;100193.81;690037;28;1160;-79
2023/07/12 01:08:48;;;;;;;8.25;3.60;;;;;;;21.35;67.63;100207.78;687796;28;833;-79
2023/07/12 01:09:13;;;;;;;7.60;3.40;;;;;;;21.32;67.56;100199.91;687540;28;1283;-78
2023/07/12 01:09:33;;;;;;;7.47;3.40;;;;;;;21.26;67.54;100189.44;690447;28;1250;-79
2023/07/12 01:09:54;;;;;;;6.80;3.20;;;;;;;21.29;67.56;100199.13;685017;28;1393;-79
2023/07/12 01:10:15;;;;;;;8.85;3.40;;;;;;;21.26;67.50;100200.06;687401;28;1337;-79
2023/07/12 01:10:36;;;;;;;8.40;3.35;;;;;;;21.32;67.45;100202.56;685063;28;810;-80
2023/07/12 01:10:59;;;;;;;7.88;3.40;;;;;;;21.32;67.54;100205.22;682325;29;1064;-79
2023/07/12 01:11:22;;;;;;;6.80;3.40;;;;;;;21.28;67.51;100203.56;687905;28;996;-79
2023/07/12 01:11:43;;;;;;;6.10;3.80;;;;;;;21.32;67.54;100214.94;685686;28;797;-78
2023/07/12 01:12:04;;;;;;;6.47;3.72;;;;;;;21.27;67.60;100209.75;685434;28;1033;-79
2023/07/12 01:12:25;;;;;;;7.10;3.60;;;;;;;21.22;67.54;100193.97;677116;29;1261;-79
2023/07/12 01:12:46;;;;;;;8.27;3.38;;;;;;;21.23;67.64;100192.19;682884;28;1187;-78
2023/07/12 01:13:08;;;;;;;8.70;3.50;;;;;;;21.28;67.48;100202.69;685334;28;1089;-78
2023/07/12 01:13:30;;;;;;;8.00;3.42;;;;;;;21.29;67.50;100201.78;680118;29;1480;-78
2023/07/12 01:13:51;;;;;;;6.28;3.35;;;;;;;21.29;67.53;100196.47;680173;29;999;-78
2023/07/12 01:14:17;;;;;;;5.43;3.17;;;;;;;21.21;67.46;100191.38;677438;29;1154;-80
2023/07/12 01:14:39;;;;;;;5.70;3.15;;;;;;;21.23;67.40;100198.34;680161;29;1258;-80
2023/07/12 01:15:01;;;;;;;6.22;3.25;;;;;;;21.26;67.56;100192.09;684637;28;1358;-78
2023/07/12 01:15:22;;;;;;;5.70;3.10;;;;;;;21.33;67.45;100200.78;677892;28;1215;-79
2023/07/12 01:15:43;;;;;;;4.95;3.13;;;;;;;21.27;67.45;100190.34;679628;29;1092;-79
2023/07/12 01:16:04;;;;;;;5.75;3.15;;;;;;;21.26;67.34;100185.94;680060;29;962;-79
2023/07/12 01:16:27;;;;;;;8.63;3.35;;;;;;;21.26;67.38;100197.41;683720;28;1622;-79
2023/07/12 01:16:53;;;;;;;8.75;3.30;;;;;;;21.32;67.61;100209.63;693199;28;1187;-79
2023/07/12 01:17:14;;;;;;;7.57;3.30;;;;;;;21.27;67.59;100209.75;690637;28;1117;-78
2023/07/12 01:17:35;;;;;;;5.45;3.25;;;;;;;21.27;67.44;100196.50;682769;29;804;-79
2023/07/12 01:17:55;;;;;;;4.65;3.10;;;;;;;21.34;67.46;100218.44;682360;29;1197;-79
2023/07/12 01:18:16;;;;;;;6.05;3.15;;;;;;;21.27;67.57;100207.09;684702;28;1192;-78
2023/07/12 01:18:39;;;;;;;7.00;3.60;;;;;;;21.30;67.49;100211.47;682932;28;1256;-79
2023/07/12 01:19:00;;;;;;;7.70;3.80;;;;;;;21.35;67.59;100230.81;677856;29;1135;-78
2023/07/12 01:19:20;;;;;;;5.85;3.70;;;;;;;21.30;67.72;100211.47;682618;29;1175;-78
2023/07/12 01:19:41;;;;;;;6.43;3.72;;;;;;;21.32;67.60;100220.25;682992;29;863;-79
2023/07/12 01:20:03;;;;;;;6.13;3.30;;;;;;;21.35;67.58;100220.19;688247;28;1000;-78
2023/07/12 01:20:25;;;;;;;6.18;3.28;;;;;;;21.32;67.49;100214.94;687855;28;1110;-78
2023/07/12 01:21:08;;;;;;;5.10;3.15;;;;;;;21.32;67.63;100213.19;690325;28;1390;-78
2023/07/12 01:21:33;;;;;;;5.28;3.45;;;;;;;21.38;67.66;100220.09;685287;28;1104;-78
2023/07/12 01:21:54;;;;;;;5.22;3.47;;;;;;;21.37;67.72;100224.56;690529;28;1274;-79
2023/07/12 01:22:15;;;;;;;4.85;3.13;;;;;;;21.34;67.59;100219.31;685325;28;1130;-79
2023/07/12 01:22:36;;;;;;;5.32;3.30;;;;;;;21.39;67.64;100215.69;682906;28;1202;-79
2023/07/12 01:22:57;;;;;;;4.97;3.10;;;;;;;21.40;67.62;100217.41;680075;29;981;-79
2023/07/12 01:23:18;;;;;;;4.57;3.00;;;;;;;21.39;67.76;100216.53;690078;28;1210;-78
2023/07/12 01:23:40;;;;;;;5.60;3.10;;;;;;;21.37;67.69;100205.97;690857;28;1192;-79
2023/07/12 01:24:02;;;;;;;6.10;3.30;;;;;;;21.35;67.73;100210.44;687940;28;1409;-79
2023/07/12 01:24:25;;;;;;;6.78;3.40;;;;;;;21.40;67.72;100215.66;687681;28;1015;-79
2023/07/12 01:24:46;;;;;;;6.78;3.50;;;;;;;21.32;67.63;100199.91;680165;29;1358;-79
2023/07/12 01:25:07;;;;;;;6.95;3.60;;;;;;;21.39;67.81;100213.03;683105;28;1274;-79
2023/07/12 01:25:46;;;;;;;6.65;3.72;;;;;;;21.42;67.70;100221.78;682293;29;1577;-78
2023/07/12 01:26:21;;;;;;;7.60;3.60;;;;;;;21.41;67.73;100212.06;685242;28;1916;-79
2023/07/12 01:26:45;;;;;;;6.53;3.60;;;;;;;21.41;67.78;100225.34;680279;28;1294;-79
2023/07/12 01:27:19;;;;;;;7.53;3.50;;;;;;;21.39;67.81;100227.16;682696;29;1030;-79
2023/07/12 01:27:39;;;;;;;8.30;3.50;;;;;;;21.36;67.92;100222.81;682897;29;828;-79
2023/07/12 01:28:02;;;;;;;8.05;3.30;;;;;;;21.41;67.80;100221.81;682752;28;1083;-79
2023/07/12 01:28:23;;;;;;;7.60;3.17;;;;;;;21.42;67.72;100220.91;684044;28;1098;-79
2023/07/12 01:28:46;;;;;;;7.20;3.40;;;;;;;21.43;67.68;100218.22;685525;28;1038;-78
2023/07/12 01:29:08;;;;;;;7.43;3.80;;;;;;;21.35;67.74;100213.09;685416;28;1120;-80
2023/07/12 01:29:29;;;;;;;9.23;4.10;;;;;;;21.31;67.95;100205.25;682454;29;1045;-78
2023/07/12 01:29:51;;;;;;;8.20;3.90;;;;;;;21.34;68.04;100206.03;688789;28;1262;-78
2023/07/12 01:30:18;;;;;;;8.60;3.55;;;;;;;21.36;67.88;100211.31;685098;28;1303;-78
2023/07/12 01:30:40;;;;;;;6.70;3.28;;;;;;;21.37;68.01;100203.31;685535;28;816;-78
2023/07/12 01:31:01;;;;;;;6.32;3.50;;;;;;;21.43;68.05;100219.97;685474;28;1045;-79
2023/07/12 01:31:25;;;;;;;6.87;3.70;;;;;;;21.41;67.90;100217.38;685222;28;1322;-79
2023/07/12 01:31:46;;;;;;;7.20;4.10;;;;;;;21.43;67.96;100217.31;683291;28;886;-79
2023/07/12 01:32:07;;;;;;;6.32;4.00;;;;;;;21.42;68.11;100215.59;683054;28;1139;-79
2023/07/12 01:32:30;;;;;;;6.03;3.67;;;;;;;21.42;68.04;100211.16;678820;29;1385;-79
2023/07/12 01:32:52;;;;;;;5.38;3.70;;;;;;;21.43;68.11;100215.56;680145;29;1093;-79
2023/07/12 01:33:13;;;;;;;5.78;3.90;;;;;;;21.39;68.06;100208.56;685316;28;1100;-79
2023/07/12 01:33:35;;;;;;;6.50;4.10;;;;;;;21.39;68.08;100207.72;680100;29;807;-79
2023/07/12 01:33:56;;;;;;;6.50;4.07;;;;;;;21.39;67.93;100205.06;685346;28;945;-79
2023/07/12 01:34:18;;;;;;;5.68;3.75;;;;;;;21.40;67.83;100207.69;685153;28;1112;-79
2023/07/12 01:34:38;;;;;;;6.15;3.50;;;;;;;21.43;67.97;100212.00;690883;28;1321;-79
2023/07/12 01:34:59;;;;;;;5.50;3.25;;;;;;;21.43;68.07;100212.91;685392;28;1412;-79
2023/07/12 01:35:20;;;;;;;5.90;3.50;;;;;;;21.41;68.02;100205.88;683085;28;1356;-79
2023/07/12 01:35:40;;;;;;;5.73;3.80;;;;;;;21.35;68.03;100194.50;685197;28;717;-79
2023/07/12 01:36:01;;;;;;;6.10;4.00;;;;;;;21.45;68.06;100212.88;682661;28;1087;-79
2023/07/12 01:36:23;;;;;;;5.97;3.85;;;;;;;21.39;68.18;100205.91;682467;29;1042;-79
2023/07/12 01:36:45;;;;;;;6.03;3.60;;;;;;;21.46;68.07;100217.25;685596;28;847;-79
2023/07/12 01:37:06;;;;;;;5.78;3.50;;;;;;;21.43;67.96;100212.00;688116;28;1128;-79
2023/07/12 01:37:27;;;;;;;7.70;3.60;;;;;;;21.40;68.13;100202.38;682458;29;1190;-79
2023/07/12 01:37:47;;;;;;;7.80;3.60;;;;;;;21.43;68.14;100198.75;680179;29;1063;-78
2023/07/12 01:38:08;;;;;;;9.00;3.88;;;;;;;21.41;68.26;100193.50;679920;28;1219;-79
2023/07/12 01:38:29;;;;;;;6.33;3.70;;;;;;;21.38;68.13;100193.56;684932;28;1159;-78
2023/07/12 01:38:54;;;;;;;6.80;3.70;;;;;;;21.44;68.21;100208.44;685463;28;808;-79
2023/07/12 01:39:14;;;;;;;7.50;3.85;;;;;;;21.36;68.33;100196.28;677829;29;1711;-79
2023/07/12 01:39:35;;;;;;;8.80;3.92;;;;;;;21.40;68.12;100204.16;685359;28;945;-79
2023/07/12 01:39:56;;;;;;;9.83;3.80;;;;;;;21.39;68.17;100200.59;688001;28;1279;-79
2023/07/12 01:40:17;;;;;;;7.63;3.60;;;;;;;21.44;68.08;100205.78;685197;28;1132;-79
2023/07/12 01:40:37;;;;;;;6.13;3.60;;;;;;;21.45;68.22;100207.56;685355;28;854;-79
2023/07/12 01:40:58;;;;;;;5.70;3.80;;;;;;;21.48;68.08;100218.97;685286;28;964;-79
2023/07/12 01:41:19;;;;;;;5.78;3.60;;;;;;;21.41;68.03;100208.53;687710;28;1286;-79
2023/07/12 01:41:40;;;;;;;6.50;3.90;;;;;;;21.48;68.06;100215.44;688148;28;876;-78
2023/07/12 01:42:02;;;;;;;6.17;3.90;;;;;;;21.46;68.04;100217.25;685396;28;1128;-79
2023/07/12 01:42:22;;;;;;;5.95;3.97;;;;;;;21.43;68.15;100212.00;687690;28;1256;-78
2023/07/12 01:42:44;;;;;;;5.90;3.97;;;;;;;21.44;68.14;100216.41;687309;28;1217;-78
2023/07/12 01:43:04;;;;;;;6.22;4.00;;;;;;;21.42;68.22;100215.59;688033;28;1071;-79
2023/07/12 01:43:25;;;;;;;7.93;4.60;;;;;;;21.41;68.14;100211.19;687838;28;973;-79
2023/07/12 01:43:47;;;;;;;7.63;4.60;;;;;;;21.43;68.37;100212.00;680188;28;1868;-79
2023/07/12 01:44:07;;;;;;;9.00;4.63;;;;;;;21.46;68.18;100223.41;685323;28;1245;-79
2023/07/12 01:44:28;;;;;;;7.20;4.22;;;;;;;21.47;68.31;100222.50;685242;28;1063;-79
2023/07/12 01:44:49;;;;;;;7.00;4.15;;;;;;;21.39;68.04;100207.72;685550;28;835;-80
2023/07/12 01:45:10;;;;;;;6.47;4.17;;;;;;;21.45;68.13;100212.88;677381;28;1271;-79
2023/07/12 01:45:31;;;;;;;7.18;4.07;;;;;;;21.39;68.01;100199.75;685192;28;1157;-79
2023/07/12 01:45:51;;;;;;;9.70;4.25;;;;;;;21.40;68.46;100212.09;679967;28;2046;-79
2023/07/12 01:46:13;;;;;;;9.23;4.28;;;;;;;21.46;68.19;100211.94;687707;28;1184;-79
2023/07/12 01:46:34;;;;;;;8.73;4.07;;;;;;;21.36;68.21;100206.88;682612;29;1172;-79
2023/07/12 01:46:55;;;;;;;9.20;4.05;;;;;;;21.42;68.30;100212.94;685214;28;953;-79
2023/07/12 01:47:16;;;;;;;11.43;4.38;;;;;;;21.40;68.54;100214.75;690602;28;1117;-79
2023/07/12 01:47:37;;;;;;;12.57;4.60;;;;;;;21.36;68.36;100201.59;687881;28;1207;-79
2023/07/12 01:48:00;;;;;;;9.60;4.50;;;;;;;21.39;68.44;100215.69;685276;28;994;-79
2023/07/12 01:48:21;;;;;;;9.18;4.50;;;;;;;21.37;68.42;100202.44;685053;28;1062;-80
2023/07/12 01:48:43;;;;;;;9.95;4.75;;;;;;;21.45;68.55;100219.03;685525;28;882;-79
2023/07/12 01:49:03;;;;;;;9.68;4.50;;;;;;;21.44;68.40;100213.75;682646;28;982;-79
2023/07/12 01:49:24;;;;;;;7.55;3.95;;;;;;;21.39;68.35;100205.91;682575;28;1117;-79
2023/07/12 01:49:45;;;;;;;6.00;3.90;;;;;;;21.42;68.41;100204.97;688043;28;1298;-79
2023/07/12 01:50:07;;;;;;;6.05;4.10;;;;;;;21.39;68.32;100190.00;687837;28;1219;-79
2023/07/12 01:50:28;;;;;;;6.20;4.40;;;;;;;21.42;68.41;100207.63;685108;28;984;-78
2023/07/12 01:50:49;;;;;;;6.43;4.13;;;;;;;21.44;68.56;100211.09;683271;28;1373;-79